Aktualne dane pomiarowe

Uwaga, wersja testowa! Automatyczne pobieranie danych za pomocą narzędzi lub skryptów to umożliwiających jest zabronione.

Dane meteo z obszaru Polski uzyskane na podstawie depesz SYNOP pobieranych co godzinę z NWS. Najedź myszką na symbol przedstawiony w tabeli, aby uzyskać informacje co do jego znaczenia. Prosimy pamiętać, że to testowa wersja strony, która jeszcze nie jest ukończona. Stworzono również jest krótki FAQ dotyczący korzystania z tej podstrony Anomalie temperatury w chwili obecnej odniesione są do okresu referencyjnego 1951-2016. Okres ten będzie później zmieniony na 1981-2010. Kliknij ikonę aby pobrać plik CSV. Kliknij ikonę aby wygenerować mapę synoptyczną dla danego terminu.

Wybierz Datę:    

        

Katowice (12560)

Dane terminowe dla wybranej stacji. Kliknij datę, aby otrzymać dane z tego terminu dla wszystkich stacji.

TemperaturaZachmurzenieWiatrCiśnienieOpadyPogoda
 Data t td wb tx tn tg rh  Nt Nl Cl Cm Ch ws wd g1 g2 wx mslp ppp ch 24h 12h t ww ww w1 w2  
2019-07-20 23:00:00 19.3 15.0 16.4--- 7630.0wx-wx1wx--11016.3 983.6 0.0---------
2019-07-20 22:00:00 19.8 14.6 16.3--- 7230.0wx-wx0---01016.4 983.8 0.6---------
2019-07-20 21:00:00 20.4 14.5 16.5--- 6930.0wx-0----1016.0 983.4 0.5---------
2019-07-20 20:00:00 20.4 14.5 16.5--- 6930.0wx-wx1wx--11016.2 983.6 0.6---------
2019-07-20 19:00:00 21.6 15.4 17.5--- 6830.0wx-wx1wx--11015.6 983.2 0.1---------
2019-07-20 18:00:00 24.8 15.4 18.7 28.3 18.0- 5630.0wxwxwxwxwx1wx--11014.9 982.9 -0.4- 0.012------
2019-07-20 17:00:00 27.2 11.6 17.8--- 3830.0wxwxwxwxwx1wx--11014.8 983.0 -0.6---------
2019-07-20 16:00:00 27.1 12.3 18.1--- 4030.0wxwxwxwx2wx--21014.9 983.1 -0.6---------
2019-07-20 15:00:00 27.4 11.8 18.0--- 3830.0wxwxwxwxwx3wx--31015.1 983.3 -0.8---------
2019-07-20 14:00:00 27.3 12.1 18.1--- 3930.0wxwxwxwx2wx--21015.4 983.6 -0.9---------
2019-07-20 13:00:00 27.4 12.6 18.3--- 4030.0wxwxwxwx3wx--31015.5 983.7 -1.1---------
2019-07-20 12:00:00 26.6 13.7 18.6--- 4530.0wxwxwxwxwx2wx--21016.0 984.1 -0.9- 0.06------
2019-07-20 11:00:00 26.1 13.6 18.3--- 4630.0wxwxwxwxwx2wx--21016.5 984.5 -0.4---------
2019-07-20 10:00:00 24.9 13.8 17.9--- 5030.0wxwxwxwxwx2wx--21016.9 984.8 0.0---------
2019-07-20 09:00:00 23.6 12.6 16.8--- 5030.0wxwxwxwx2wx--21017.2 985.0 0.4---------
2019-07-20 08:00:00 22.0 14.6 17.2--- 6320.0wx-wxwx2wx--21017.3 984.9 0.6---------
2019-07-20 07:00:00 20.2 15.0 16.7--- 7220.0wx-wxwx2wx--21017.4 984.8 0.6---------
2019-07-20 06:00:00 18.1 16.3 16.8 19.0 14.0 13 8910.0wx-wx2wx--21017.5 984.6 0.6 1.0 0.112wx-w1- 7.4
2019-07-20 05:00:00 15.9 15.1 15.3--- 9510.0wx-wxwx1wx---1017.4 984.3 0.5---------
2019-07-20 04:00:00 15.3 14.7 14.8--- 9610.0wxwxwxwx0---01017.4 984.2 0.5---wx---
2019-07-20 03:00:00 14.3 13.7 13.8--- 9610.0wx-wxwx1wx--11017.3 984.0 0.3---wx---
2019-07-20 02:00:00 14.8 14.0 14.2--- 9510.0wx-wxwx1wx--11017.0 983.8 0.1---wx---
2019-07-20 01:00:00 15.4 14.6 14.8--- 9510.0wx-wxwx0---01016.8 983.7 0.2---------
2019-07-20 00:00:00 16.1 15.0 15.3--- 9310.0wx-wx1wx--11016.8 983.7 0.1- 0.16wx-w1--
2019-07-19 23:00:00 16.8 15.1 15.6--- 9015.0wxwxwxwx0----1016.7 983.7 0.1---wx---
2019-07-19 22:00:00 17.0 15.2 15.7--- 8915.0wxwxwxwx1wx--11016.4 983.5 0.4---wx-w1--
2019-07-19 21:00:00 16.6 14.8 15.3--- 8915.0wx-wx1wx--11016.6 983.6 0.8---wx---
2019-07-19 20:00:00 17.2 14.8 15.5--- 8620.0wxwxwxwx1wx--11016.5 983.6 0.8---wx---
2019-07-19 19:00:00 17.8 14.1 15.3--- 7930.0wxwxwxwx1wx--11015.9 983.1 0.3---------
2019-07-19 18:00:00 18.9 13.7 15.5 27.7 18.1- 7230.0wxwxwxwx1wx-1411015.5 982.8 0.0- 0.912wx-w1w2--
2019-07-19 17:00:00 19.6 13.5 15.6--- 6850.0wxwxwxwxwx2wx--21015.4 982.8 0.9---------
2019-07-19 16:00:00 19.9 13.4 15.7--- 6630.0wxwxwxwx3wx--31015.4 982.8 0.3---------
2019-07-19 15:00:00 21.4 14.8 17.1--- 6650.0wxwxwxwx4wx-1441015.2 982.8 0.6---wx-w1w2--
2019-07-19 14:00:00 24.1 12.1 16.8--- 4730.0wxwxwxwx2wx--21014.0 981.9 0.3---------
2019-07-19 13:00:00 19.9 14.7 16.4--- 7230.0wxwxwxwx1wx-1411015.1 982.5 0.6---wx-w1--
2019-07-19 12:00:00 22.5 10.3 15.3--- 4630.0wxwxwxwx5wx-1151014.5 982.2 0.1- 0.06wx---
2019-07-19 11:00:00 26.6 8.5 16.2--- 3230.0wxwxwxwx3wx--31013.4 981.6 -0.6---------
2019-07-19 10:00:00 26.0 10.2 16.7--- 3730.0wxwxwxwxwx2wx--21013.8 981.9 -0.4---------
2019-07-19 09:00:00 24.7 11.6 16.8--- 4430.0wx-wxwx3wx--31014.1 982.1 -0.2---------
2019-07-19 08:00:00 23.0 13.2 16.9--- 5430.0wx-wxwx2wx--21014.4 982.2 0.2---------
2019-07-19 07:00:00 21.4 11.7 15.5--- 5430.0wx-wxwx2wx--21014.7 982.3 0.4---------
2019-07-19 06:00:00 18.6 12.6 14.7 21.0 10.6 8 6820.0wx-wxwx0---01015.0 982.3 0.4- 0.012-22--- 10.2
2019-07-19 05:00:00 14.5 12.7 13.2--- 8915.0wxwxwxwxwx0---01015.2 982.0 0.2----22----
2019-07-19 04:00:00 11.3 10.2 10.5--- 9315.0wxwxwxwxwx0---01015.5 981.9 0.1----22----
2019-07-19 03:00:00 11.2 9.8 10.2--- 9115.0wxwxwxwxwx1wx--11015.5 981.9 0.2----22----
2019-07-19 02:00:00 10.9 9.8 10.1--- 9320.0wxwxwxwx0---01015.4 981.8 0.2----22----
2019-07-19 01:00:00 11.0 9.6 10.0--- 9120.0wxwxwx0---01015.4 981.8 0.3----22----
2019-07-19 00:00:00 11.3 9.4 10.0--- 8820.0wx-0---01015.3 981.7 0.3- 0.06-22----
1.3 ms

 

Print Friendly, PDF & Email